Time;durP1;ratioP1;P1;durP2;ratioP2;P2;SDS_P1;SDS_P2;PMS_P1;PMS_P2;Temp;Humidity;BMP_temperature;BMP_pressure;BME280_temperature;BME280_humidity;BME280_pressure;Samples;Min_cycle;Max_cycle;Signal;HPM_P1;HPM_P2
2024/03/27 00:02:13;;;;;;;1.60;0.40;;;12.60;48.00;;;7.98;73.90;92651.34;4975816;28;20393;-51
2024/03/27 00:04:39;;;;;;;2.05;0.30;;;12.50;48.00;;;7.89;74.35;92640.00;4983187;28;20029;-54
2024/03/27 00:07:05;;;;;;;1.40;0.40;;;12.50;48.10;;;7.90;74.02;92607.13;4978421;28;20167;-54
2024/03/27 00:09:31;;;;;;;0.68;0.40;;;12.40;48.20;;;7.92;73.53;92596.19;4980291;28;20120;-53
2024/03/27 00:11:57;;;;;;;0.32;0.30;;;12.40;48.30;;;7.89;73.69;92613.50;4978365;28;20229;-53
2024/03/27 00:14:23;;;;;;;1.75;1.25;;;12.30;48.30;;;7.76;74.76;92614.50;4985120;28;20661;-53
2024/03/27 00:16:50;;;;;;;0.30;0.30;;;12.30;48.40;;;7.78;72.03;92602.50;4978324;28;20378;-54
2024/03/27 00:19:15;;;;;;;1.48;0.30;;;12.30;48.30;;;7.77;74.48;92592.19;4979205;28;20025;-52
2024/03/27 00:21:41;;;;;;;0.63;0.50;;;12.20;48.30;;;7.67;76.34;92588.03;4972928;28;20448;-52
2024/03/27 00:24:07;;;;;;;0.32;0.30;;;12.20;48.40;;;7.58;77.23;92582.81;4984973;28;20041;-51
2024/03/27 00:26:34;;;;;;;1.48;0.50;;;12.10;48.50;;;7.52;76.69;92596.50;4979669;28;20030;-51
2024/03/27 00:29:00;;;;;;;0.40;0.30;;;12.10;48.60;;;7.40;76.42;92600.63;4981808;28;20094;-53
2024/03/27 00:31:29;;;;;;;0.20;0.20;;;12.00;48.60;;;7.39;79.36;92598.28;4978565;28;20117;-54
2024/03/27 00:33:57;;;;;;;1.95;0.32;;;12.00;48.90;;;7.34;78.38;92588.66;4996759;23;20085;-50
2024/03/27 00:36:24;;;;;;;0.65;0.40;;;11.90;49.00;;;7.23;78.55;92591.94;4968746;28;20050;-47
2024/03/27 00:38:50;;;;;;;0.90;0.40;;;11.80;49.00;;;7.19;78.17;92581.22;4968876;28;20539;-46
2024/03/27 00:41:16;;;;;;;0.95;0.47;;;11.80;49.10;;;7.14;78.96;92576.84;4967050;28;20358;-47
2024/03/27 00:43:42;;;;;;;0.47;0.43;;;11.70;49.10;;;6.98;79.83;92588.25;4967126;28;20034;-48
2024/03/27 00:46:08;;;;;;;0.20;0.20;;;11.60;49.20;;;6.89;80.31;92580.31;4967196;28;20026;-49
2024/03/27 00:48:34;;;;;;;0.45;0.40;;;11.60;49.30;;;6.92;80.61;92577.06;4971968;28;20026;-52
2024/03/27 00:51:00;;;;;;;2.70;0.30;;;11.50;49.40;;;6.88;80.57;92579.56;4970686;28;20164;-52
2024/03/27 00:53:28;;;;;;;0.68;0.40;;;11.50;49.50;;;6.80;80.91;92584.84;4971167;28;20026;-52
2024/03/27 00:56:03;;;;;;;0.20;0.20;;;11.40;49.60;;;6.67;81.80;92573.34;4970485;28;20109;-51
2024/03/27 00:58:30;;;;;;;0.75;0.40;;;11.30;50.40;;;6.64;81.98;92566.03;4966195;28;20065;-51
2024/03/27 01:00:57;;;;;;;0.30;0.30;;;11.30;49.80;;;6.54;83.76;92567.13;4971356;28;20038;-47
2024/03/27 01:03:24;;;;;;;0.30;0.30;;;11.20;50.00;;;6.45;83.26;92559.22;4985509;28;20080;-49
2024/03/27 01:05:51;;;;;;;1.58;0.40;;;11.10;50.10;;;6.39;82.54;92557.03;4970823;28;20053;-50
2024/03/27 01:08:18;;;;;;;0.47;0.40;;;11.00;50.10;;;6.34;82.49;92551.91;4969772;28;20030;-50
2024/03/27 01:10:45;;;;;;;1.25;0.52;;;11.00;50.30;;;6.33;82.13;92548.50;4971306;28;20022;-51
2024/03/27 01:13:17;;;;;;;0.30;0.30;;;10.90;50.30;;;6.33;81.20;92545.06;4970304;28;20473;-47
2024/03/27 01:15:51;;;;;;;1.25;0.40;;;10.90;50.50;;;6.24;82.67;92548.50;4970805;28;20057;-46
2024/03/27 01:18:18;;;;;;;0.63;0.35;;;10.80;50.50;;;6.30;82.00;92548.31;4970997;28;20432;-50
2024/03/27 01:20:45;;;;;;;1.00;0.50;;;10.80;50.40;;;6.30;79.92;92548.31;4964137;28;20445;-52
2024/03/27 01:23:12;;;;;;;0.50;0.30;;;10.80;50.40;;;6.29;82.85;92552.06;4968830;28;20045;-49
2024/03/27 01:25:39;;;;;;;0.30;0.20;;;10.80;50.50;;;6.21;84.38;92557.03;4969466;28;20392;-49
2024/03/27 01:28:07;;;;;;;2.45;0.50;;;10.80;50.60;;;6.15;84.86;92555.63;4971407;28;20061;-49
2024/03/27 01:30:33;;;;;;;0.30;0.30;;;10.70;50.60;;;6.12;84.97;92569.47;4970813;28;20030;-47
2024/03/27 01:32:59;;;;;;;1.55;0.38;;;10.70;50.70;;;6.07;84.34;92553.75;4969684;28;20400;-51
2024/03/27 01:35:26;;;;;;;0.98;0.40;;;10.60;50.80;;;6.00;84.46;92545.53;4968639;28;20042;-48
2024/03/27 01:37:52;;;;;;;0.22;0.22;;;10.60;50.90;;;5.91;85.82;92542.81;4966070;28;20022;-47
2024/03/27 01:40:19;;;;;;;0.70;0.45;;;10.50;50.90;;;5.85;86.37;92549.34;4967432;28;20031;-46
2024/03/27 01:42:45;;;;;;;1.60;0.40;;;10.50;51.00;;;5.86;86.02;92550.13;4986353;28;20485;-47
2024/03/27 01:45:14;;;;;;;2.20;0.40;;;10.50;51.10;;;5.81;85.20;92551.06;4965808;28;20022;-48
2024/03/27 01:47:43;;;;;;;0.68;0.47;;;10.40;51.20;;;5.77;87.37;92545.63;4965336;28;20025;-48
2024/03/27 01:50:13;;;;;;;1.90;0.45;;;10.40;51.30;;;5.73;88.10;92534.09;4963804;28;20022;-49
2024/03/27 01:52:41;;;;;;;0.50;0.40;;;10.30;51.40;;;5.66;88.30;92531.13;4962307;28;20023;-47
2024/03/27 01:55:09;;;;;;;0.50;0.50;;;10.30;51.50;;;5.60;90.45;92527.06;4961888;28;20552;-48
2024/03/27 01:57:39;;;;;;;0.65;0.50;;;10.30;51.60;;;5.61;89.12;92520.72;4963199;28;20033;-51
2024/03/27 02:00:06;;;;;;;1.75;0.77;;;10.20;51.80;;;5.60;88.33;92518.38;4963870;28;20030;-47
2024/03/27 02:02:35;;;;;;;1.27;0.70;;;10.20;51.80;;;5.52;88.67;92504.88;4965976;28;20354;-49
2024/03/27 02:05:01;;;;;;;1.98;0.80;;;10.10;51.80;;;5.42;93.07;92485.88;4963772;28;20042;-47
2024/03/27 02:07:28;;;;;;;2.25;0.90;;;10.10;52.10;;;5.39;92.32;92491.75;4961993;28;20113;-47
2024/03/27 02:09:54;;;;;;;1.13;0.88;;;10.00;52.20;;;5.52;91.55;92496.94;4961255;28;20029;-47
2024/03/27 02:12:20;;;;;;;1.50;0.70;;;10.10;52.50;;;5.78;87.24;92490.91;4966709;28;20037;-48
2024/03/27 02:14:46;;;;;;;2.42;0.90;;;10.10;52.80;;;5.98;85.51;92486.91;4958514;28;20026;-52
2024/03/27 02:17:12;;;;;;;1.65;1.02;;;10.10;52.80;;;6.00;85.00;92482.09;4966116;28;20018;-49
2024/03/27 02:19:38;;;;;;;2.95;0.88;;;10.20;52.70;;;5.91;88.13;92476.78;4957791;28;20046;-50
2024/03/27 02:22:04;;;;;;;0.90;0.70;;;10.20;52.60;;;5.87;88.28;92483.00;4970389;28;20054;-50
2024/03/27 02:24:50;;;;;;;3.80;0.90;;;10.20;52.50;;;5.77;89.01;92484.88;4963968;28;20392;-47
2024/03/27 02:27:16;;;;;;;3.53;1.20;;;10.20;52.70;;;5.66;90.16;92469.63;4966353;28;20034;-47
2024/03/27 02:29:42;;;;;;;2.92;1.27;;;10.20;52.60;;;5.66;91.80;92456.41;4967215;28;20026;-47
2024/03/27 02:32:08;;;;;;;3.17;0.80;;;10.20;52.90;;;5.70;88.01;92466.06;4963553;28;20038;-50
2024/03/27 02:34:33;;;;;;;2.88;0.77;;;10.20;52.90;;;5.64;89.24;92448.81;4966446;28;20042;-48
2024/03/27 02:36:59;;;;;;;2.30;0.98;;;10.20;53.00;;;5.80;86.47;92451.78;4966150;28;20022;-50
2024/03/27 02:39:25;;;;;;;9.23;1.35;;;10.20;52.90;;;5.88;86.12;92452.84;4968051;28;20034;-49
2024/03/27 02:41:51;;;;;;;2.95;1.00;;;10.20;52.80;;;5.91;85.62;92447.72;4969074;28;20048;-47
2024/03/27 02:44:18;;;;;;;2.78;1.33;;;10.20;52.80;;;5.87;86.67;92422.25;4970600;28;20030;-47
2024/03/27 02:46:43;;;;;;;1.75;1.20;;;10.20;52.80;;;5.81;87.39;92405.78;4973111;28;20488;-48
2024/03/27 02:49:09;;;;;;;2.83;1.33;;;10.20;52.70;;;5.74;87.27;92421.31;4971119;28;20033;-47
2024/03/27 02:51:35;;;;;;;2.30;1.20;;;10.20;52.70;;;5.66;88.61;92424.72;4973975;28;20022;-52
2024/03/27 02:54:01;;;;;;;1.92;1.10;;;10.20;52.80;;;5.57;88.12;92414.16;4970993;28;20579;-48
2024/03/27 02:56:27;;;;;;;1.70;1.10;;;10.10;52.80;;;5.49;90.29;92407.03;4972706;28;20030;-47
2024/03/27 02:58:53;;;;;;;5.80;1.63;;;10.10;52.80;;;5.41;90.57;92398.00;4966608;28;20030;-47
2024/03/27 03:01:19;;;;;;;2.25;1.20;;;10.10;52.80;;;5.40;90.92;92401.72;4975643;28;20476;-47
2024/03/27 03:03:45;;;;;;;2.72;1.55;;;10.00;52.90;;;5.34;91.55;92392.41;4972530;28;20041;-52
2024/03/27 03:06:11;;;;;;;6.13;1.80;;;10.00;52.90;;;5.32;92.14;92391.91;4972664;28;20022;-52
2024/03/27 03:08:36;;;;;;;3.67;1.63;;;9.90;53.10;;;5.25;92.79;92395.03;4971923;28;20157;-47
2024/03/27 03:11:02;;;;;;;2.35;1.30;;;9.90;53.10;;;5.12;93.63;92390.66;4973862;28;20492;-48
2024/03/27 03:13:28;;;;;;;2.92;1.30;;;9.80;53.10;;;5.06;94.31;92383.97;4966594;28;20046;-51
2024/03/27 03:15:54;;;;;;;2.35;1.77;;;9.70;53.20;;;4.98;94.28;92384.72;4972643;28;20507;-49
2024/03/27 03:18:20;;;;;;;3.10;1.30;;;9.70;53.30;;;4.93;94.16;92376.97;4972044;28;20029;-48
2024/03/27 03:20:46;;;;;;;4.65;1.38;;;9.60;53.30;;;4.82;95.21;92381.72;4969954;28;20061;-52
2024/03/27 03:23:13;;;;;;;5.07;1.50;;;9.50;53.40;;;4.81;94.59;92373.06;4971148;28;20022;-49
2024/03/27 03:25:39;;;;;;;2.90;1.30;;;9.50;53.50;;;4.76;94.46;92365.28;4966747;28;20032;-52
2024/03/27 03:28:05;;;;;;;3.08;1.35;;;9.40;53.60;;;4.68;96.08;92352.09;4971617;28;20030;-48
2024/03/27 03:30:31;;;;;;;2.25;1.38;;;9.40;53.80;;;4.67;96.43;92351.31;4972766;28;20039;-47
2024/03/27 03:32:57;;;;;;;3.85;1.38;;;9.40;53.80;;;4.66;96.30;92333.16;4965494;28;20026;-48
2024/03/27 03:35:25;;;;;;;3.85;1.15;;;9.30;53.80;;;4.64;96.37;92317.66;4970922;28;20190;-48
2024/03/27 03:37:51;;;;;;;3.38;1.15;;;9.30;53.90;;;4.62;95.74;92330.34;4969920;28;20037;-47
2024/03/27 03:40:17;;;;;;;3.15;1.23;;;9.30;54.00;;;4.63;95.82;92350.34;4972146;28;20405;-49
2024/03/27 03:42:43;;;;;;;3.55;1.23;;;9.30;54.10;;;4.60;95.87;92357.00;4971027;28;20030;-49
2024/03/27 03:45:09;;;;;;;3.35;1.40;;;9.20;54.20;;;4.56;98.11;92353.44;4971220;28;20018;-51
2024/03/27 03:47:34;;;;;;;2.72;1.40;;;9.20;54.30;;;4.59;98.01;92362.59;4968917;28;20019;-53
2024/03/27 03:50:00;;;;;;;2.15;1.40;;;9.20;54.50;;;4.59;97.73;92392.38;4970975;28;20037;-50
2024/03/27 03:52:26;;;;;;;2.55;1.40;;;9.30;54.60;;;4.59;97.61;92389.72;4971634;28;20097;-50
2024/03/27 03:54:52;;;;;;;4.78;1.40;;;9.30;54.70;;;4.58;97.24;92390.81;4970951;28;20030;-48
2024/03/27 03:57:18;;;;;;;4.22;1.75;;;9.30;54.70;;;4.55;98.82;92388.78;4970453;28;20026;-50
2024/03/27 03:59:44;;;;;;;3.55;1.08;;;9.30;54.70;;;4.58;98.14;92392.69;4969578;28;20041;-49
2024/03/27 04:02:10;;;;;;;3.00;1.20;;;9.30;54.70;;;4.56;97.84;92385.06;4969605;28;20100;-51
2024/03/27 04:04:36;;;;;;;2.15;1.20;;;9.30;54.70;;;4.57;98.00;92378.69;4969696;28;20408;-47
2024/03/27 04:07:02;;;;;;;2.13;1.05;;;9.30;54.70;;;4.59;99.55;92367.88;4969114;28;20026;-51
2024/03/27 04:09:30;;;;;;;1.77;1.20;;;9.30;54.70;;;4.50;100.00;92359.16;4971809;28;20130;-47
2024/03/27 04:11:56;;;;;;;2.22;1.45;;;9.30;54.80;;;4.55;98.99;92357.16;4971139;28;20117;-47
2024/03/27 04:14:22;;;;;;;1.65;1.27;;;9.30;54.80;;;4.56;99.38;92360.56;4970844;28;20714;-48
2024/03/27 04:16:47;;;;;;;2.53;1.20;;;9.30;54.80;;;4.55;99.93;92359.78;4970116;28;20018;-50
2024/03/27 04:19:13;;;;;;;5.20;1.80;;;9.30;54.80;;;4.53;100.00;92375.13;4969131;28;20117;-48
2024/03/27 04:21:39;;;;;;;2.97;1.80;;;9.30;55.00;;;4.58;100.00;92390.03;4966660;28;20080;-49
2024/03/27 04:24:05;;;;;;;5.13;1.90;;;9.30;55.10;;;4.61;100.00;92381.53;4971107;28;20037;-47
2024/03/27 04:26:31;;;;;;;3.95;1.88;;;9.30;55.30;;;4.74;100.00;92379.88;4968703;28;20037;-48
2024/03/27 04:28:58;;;;;;;3.55;2.13;;;9.30;55.40;;;4.91;100.00;92387.03;4970722;28;20041;-48
2024/03/27 04:31:24;;;;;;;5.10;2.38;;;9.40;55.60;;;4.94;99.58;92389.84;4969976;28;21137;-49
2024/03/27 04:33:50;;;;;;;5.60;2.70;;;9.40;55.50;;;4.93;99.26;92392.78;4970630;28;20038;-47
2024/03/27 04:36:16;;;;;;;2.67;1.98;;;9.50;55.50;;;4.87;100.00;92379.75;4969821;28;20105;-48
2024/03/27 04:38:43;;;;;;;6.10;2.10;;;9.50;55.50;;;4.84;100.00;92347.94;4971118;28;20053;-47
2024/03/27 04:41:09;;;;;;;4.97;2.00;;;9.50;55.60;;;5.00;98.27;92345.63;4971005;28;20521;-48
2024/03/27 04:43:37;;;;;;;5.13;2.22;;;9.50;55.70;;;5.17;97.28;92356.22;4971812;28;20105;-52
2024/03/27 04:46:04;;;;;;;5.75;2.50;;;9.60;55.70;;;5.18;99.88;92365.69;4969839;28;20053;-51
2024/03/27 04:48:30;;;;;;;5.47;2.55;;;9.60;55.70;;;5.07;100.00;92354.63;4970678;28;20046;-47
2024/03/27 04:50:56;;;;;;;6.18;2.92;;;9.60;55.80;;;5.20;100.00;92337.13;4969436;28;20099;-48
2024/03/27 04:53:22;;;;;;;5.60;3.03;;;9.70;56.00;;;5.25;100.00;92329.03;4970778;28;20045;-48
2024/03/27 04:55:57;;;;;;;8.80;3.20;;;9.70;55.90;;;5.22;100.00;92334.16;4969282;28;20540;-47
2024/03/27 04:58:23;;;;;;;6.38;2.97;;;9.80;56.10;;;5.20;100.00;92337.13;4966157;28;20070;-51
2024/03/27 05:00:49;;;;;;;6.72;2.50;;;9.80;56.00;;;5.19;100.00;92335.56;4966559;28;20034;-49
2024/03/27 05:03:16;;;;;;;7.32;2.45;;;9.80;55.90;;;5.20;100.00;92320.50;4974348;28;20027;-47
2024/03/27 05:05:45;;;;;;;4.38;2.67;;;9.80;55.90;;;5.18;100.00;92323.47;4967283;28;20054;-47
2024/03/27 05:08:16;;;;;;;4.20;1.90;;;9.80;55.90;;;5.19;100.00;92325.00;4969496;28;20018;-48
2024/03/27 05:10:41;;;;;;;4.07;1.58;;;9.80;56.00;;;5.15;98.47;92312.75;4970365;28;20036;-47
2024/03/27 05:13:07;;;;;;;5.10;1.50;;;9.80;55.90;;;5.31;97.89;92316.47;4963992;28;20384;-47
2024/03/27 05:15:33;;;;;;;3.60;1.60;;;9.80;56.00;;;5.37;99.92;92320.53;4967478;28;20029;-48
2024/03/27 05:17:59;;;;;;;3.00;1.42;;;9.90;56.00;;;5.34;99.11;92310.59;4970802;28;20465;-49
2024/03/27 05:20:26;;;;;;;4.10;2.17;;;9.90;56.00;;;5.39;96.41;92297.25;4970215;28;20037;-48
2024/03/27 05:22:51;;;;;;;2.78;2.03;;;9.90;56.00;;;5.47;96.04;92298.31;4970801;28;20038;-47
2024/03/27 05:25:20;;;;;;;4.70;2.38;;;10.00;56.00;;;5.54;96.23;92304.66;4969435;28;20030;-48
2024/03/27 05:27:45;;;;;;;5.47;2.40;;;10.00;56.60;;;5.51;99.36;92307.16;4973697;28;20397;-48
2024/03/27 05:30:12;;;;;;;5.78;3.10;;;10.00;56.00;;;5.44;100.00;92297.06;4970554;28;20045;-49
2024/03/27 05:32:38;;;;;;;7.22;3.17;;;10.10;56.10;;;5.44;100.00;92291.78;4969715;28;20026;-49
2024/03/27 05:35:05;;;;;;;6.50;3.97;;;10.10;56.40;;;5.56;99.14;92302.47;4969507;28;20057;-50
2024/03/27 05:37:30;;;;;;;7.15;3.97;;;10.10;56.30;;;5.59;99.45;92300.31;4968443;28;20056;-48
2024/03/27 05:39:57;;;;;;;7.15;4.30;;;10.20;56.30;;;5.62;100.00;92289.91;4969801;28;20065;-46
2024/03/27 05:42:23;;;;;;;7.85;3.85;;;10.20;56.40;;;5.74;98.48;92286.63;4967549;28;20036;-48
2024/03/27 05:44:49;;;;;;;6.03;3.40;;;10.30;56.60;;;5.82;97.36;92279.75;4966246;28;20078;-48
2024/03/27 05:47:15;;;;;;;6.15;3.20;;;10.40;56.60;;;5.92;97.18;92274.94;4967427;28;20081;-47
2024/03/27 05:49:41;;;;;;;7.53;4.00;;;10.40;56.40;;;6.00;95.89;92303.22;4968287;28;20049;-48
2024/03/27 05:52:07;;;;;;;5.45;2.70;;;10.50;56.40;;;6.00;93.63;92313.00;4970595;28;20026;-47
2024/03/27 05:54:33;;;;;;;4.35;2.85;;;10.60;56.30;;;6.06;93.03;92310.97;4968347;28;20080;-47
2024/03/27 05:56:59;;;;;;;5.90;2.65;;;10.60;56.10;;;6.10;92.91;92325.09;4967628;28;20030;-47
2024/03/27 05:59:25;;;;;;;8.43;2.22;;;10.70;55.90;;;6.05;93.22;92327.91;4974062;28;20053;-47
2024/03/27 06:01:51;;;;;;;3.63;2.10;;;10.80;55.80;;;6.05;93.14;92328.69;4967673;28;20119;-48
2024/03/27 06:04:17;;;;;;;6.53;2.13;;;10.80;55.60;;;6.09;92.94;92332.25;4967652;28;20080;-49
2024/03/27 06:06:43;;;;;;;6.93;2.40;;;10.90;55.60;;;6.10;93.54;92336.44;4966969;28;20097;-47
2024/03/27 06:09:08;;;;;;;3.70;2.20;;;10.90;55.40;;;6.12;93.41;92339.56;4967169;28;20038;-49
2024/03/27 06:11:35;;;;;;;8.52;2.45;;;11.00;55.30;;;6.11;93.87;92343.31;4968027;28;20030;-50
2024/03/27 06:14:01;;;;;;;6.43;2.80;;;11.10;55.30;;;6.14;94.41;92358.53;4962797;28;20052;-48
2024/03/27 06:16:27;;;;;;;6.22;2.85;;;11.10;55.20;;;6.23;94.42;92347.91;4961581;28;20037;-51
2024/03/27 06:18:54;;;;;;;5.43;3.10;;;11.20;55.20;;;6.29;94.20;92344.00;4969912;28;20025;-47
2024/03/27 06:21:20;;;;;;;7.70;3.58;;;11.30;55.10;;;6.38;93.96;92357.97;4970941;28;20026;-47
2024/03/27 06:23:46;;;;;;;6.30;3.22;;;11.40;55.00;;;6.45;94.50;92376.00;4970054;28;20022;-51
2024/03/27 06:26:12;;;;;;;9.15;2.92;;;11.50;55.00;;;6.52;93.67;92372.84;4968254;28;20033;-48
2024/03/27 06:28:38;;;;;;;6.50;3.35;;;11.60;54.80;;;6.58;93.18;92385.59;4966706;28;20026;-52
2024/03/27 06:31:04;;;;;;;9.68;3.50;;;11.80;54.90;;;6.72;92.50;92380.88;4971038;28;20646;-49
2024/03/27 06:33:30;;;;;;;9.00;3.40;;;11.90;54.70;;;6.85;92.62;92365.09;4980596;23;21053;-52
2024/03/27 06:35:57;;;;;;;9.88;4.47;;;12.10;54.70;;;7.10;92.04;92356.25;4989361;28;20387;-54
2024/03/27 06:38:23;;;;;;;7.80;3.47;;;12.40;54.50;;;7.54;91.17;92353.31;4988816;28;20022;-56
2024/03/27 06:40:50;;;;;;;5.53;3.22;;;12.90;54.30;;;8.00;88.40;92359.47;4987512;28;20104;-55
2024/03/27 06:43:16;;;;;;;8.73;3.97;;;13.40;54.00;;;8.50;84.54;92369.91;4989932;28;20101;-54
2024/03/27 06:45:46;;;;;;;5.93;3.47;;;13.90;53.70;;;8.98;80.12;92364.97;4984199;28;20364;-53
2024/03/27 06:48:12;;;;;;;4.25;3.05;;;14.40;53.20;;;9.46;73.89;92347.44;4991715;28;20044;-51
2024/03/27 06:50:38;;;;;;;7.55;3.00;;;15.00;52.60;;;9.98;71.71;92370.53;4985051;28;20120;-52
2024/03/27 06:53:04;;;;;;;6.95;3.55;;;15.50;51.70;;;10.52;71.06;92385.28;4981511;28;20029;-56
2024/03/27 06:55:30;;;;;;;6.38;3.28;;;16.10;51.00;;;10.95;67.82;92387.13;4989246;28;20034;-52
2024/03/27 06:57:56;;;;;;;3.75;2.63;;;16.60;50.30;;;11.19;65.43;92391.53;4985872;28;20022;-52
2024/03/27 07:00:22;;;;;;;4.75;2.88;;;17.00;49.70;;;11.30;63.83;92391.75;4991031;28;20095;-55
2024/03/27 07:02:49;;;;;;;7.53;2.95;;;17.10;48.80;;;11.45;63.38;92392.84;4989807;28;20021;-56
2024/03/27 07:05:16;;;;;;;5.88;2.85;;;17.30;48.20;;;11.63;63.16;92407.34;4991338;28;20438;-51
2024/03/27 07:07:43;;;;;;;4.80;2.65;;;17.50;47.60;;;11.76;62.33;92394.69;4990916;28;20498;-55
2024/03/27 07:10:10;;;;;;;4.78;2.58;;;17.80;47.00;;;11.99;61.07;92400.13;4994570;28;20037;-55
2024/03/27 07:12:36;;;;;;;5.18;2.47;;;18.00;46.50;;;11.98;59.85;92385.25;4991036;28;20025;-55
2024/03/27 07:15:04;;;;;;;4.78;2.28;;;18.00;46.00;;;11.81;60.76;92389.06;4988891;28;20026;-56
2024/03/27 07:17:30;;;;;;;4.13;2.53;;;18.00;45.60;;;11.78;61.98;92398.53;4990632;28;20064;-54
2024/03/27 07:19:56;;;;;;;4.93;2.45;;;18.10;45.40;;;11.70;63.79;92422.72;4990619;28;20030;-57
2024/03/27 07:22:22;;;;;;;6.55;2.95;;;18.00;45.10;;;11.74;64.55;92432.34;4990108;28;20029;-53
2024/03/27 07:24:52;;;;;;;6.95;3.20;;;18.10;45.00;;;11.71;66.02;92435.69;4989764;28;20068;-54
2024/03/27 07:27:18;;;;;;;4.10;2.88;;;18.20;44.90;;;11.63;68.48;92431.34;4989085;28;20084;-52
2024/03/27 07:29:45;;;;;;;5.20;3.05;;;18.20;44.90;;;11.48;70.62;92440.13;4987175;28;20037;-54
2024/03/27 07:32:11;;;;;;;4.35;3.15;;;18.20;44.90;;;11.51;71.41;92447.44;4989012;28;20034;-54
2024/03/27 07:34:37;;;;;;;10.60;3.45;;;18.30;44.90;;;11.55;72.00;92443.72;4991211;28;20125;-57
2024/03/27 07:37:03;;;;;;;5.43;3.58;;;18.30;45.10;;;11.61;72.40;92449.56;4990834;28;20123;-56
2024/03/27 07:39:30;;;;;;;5.93;3.30;;;18.30;45.30;;;11.64;72.21;92461.44;4986637;28;20040;-54
2024/03/27 07:41:56;;;;;;;6.68;3.33;;;18.20;45.30;;;11.75;72.12;92468.56;4984628;28;20132;-54
2024/03/27 07:44:22;;;;;;;6.30;3.40;;;18.20;45.40;;;11.83;71.57;92472.16;4989994;28;20042;-51
2024/03/27 07:46:48;;;;;;;7.75;3.10;;;18.20;45.50;;;11.86;71.50;92492.81;4988002;28;20013;-52
2024/03/27 07:49:14;;;;;;;7.78;3.40;;;18.20;45.60;;;11.69;71.39;92483.28;4983828;28;20029;-52
2024/03/27 07:51:40;;;;;;;7.75;3.22;;;18.20;45.50;;;11.85;71.07;92453.97;4992109;28;20053;-53
2024/03/27 07:54:07;;;;;;;5.68;3.50;;;18.30;45.40;;;11.93;72.21;92468.19;4989466;28;20046;-57
2024/03/27 07:56:33;;;;;;;6.30;3.75;;;18.50;45.50;;;12.02;72.16;92485.56;4984013;28;20018;-57
2024/03/27 07:58:59;;;;;;;5.95;3.80;;;18.60;45.40;;;12.38;71.60;92483.66;4980213;28;20075;-55
2024/03/27 08:01:25;;;;;;;4.82;3.50;;;18.80;45.40;;;12.47;71.66;92489.56;4987462;28;20022;-57
2024/03/27 08:03:51;;;;;;;7.85;4.07;;;18.90;45.50;;;12.41;71.52;92487.50;4989203;28;20022;-57
2024/03/27 08:06:17;;;;;;;8.15;3.97;;;18.80;45.40;;;12.34;72.01;92474.78;4984603;28;20472;-51
2024/03/27 08:08:43;;;;;;;6.63;3.85;;;18.80;45.60;;;12.18;72.91;92493.53;4983050;28;20155;-55
2024/03/27 08:11:10;;;;;;;6.05;3.70;;;18.80;45.50;;;12.07;74.16;92505.09;4984114;28;20044;-52
2024/03/27 08:13:37;;;;;;;4.93;3.90;;;18.80;45.40;;;12.00;74.09;92505.69;4985527;28;20208;-53
2024/03/27 08:16:05;;;;;;;3.85;3.05;;;18.80;45.30;;;12.10;74.04;92523.84;4989807;28;20029;-57
2024/03/27 08:18:46;;;;;;;6.28;2.92;;;18.80;45.40;;;11.79;75.82;92522.75;4988482;28;20029;-56
2024/03/27 08:21:13;;;;;;;6.68;2.95;;;18.60;45.50;;;11.77;76.21;92530.31;4989556;28;20124;-57
2024/03/27 08:23:39;;;;;;;2.85;2.53;;;18.50;45.60;;;11.47;78.00;92524.66;4983038;28;20028;-54
2024/03/27 08:26:05;;;;;;;5.40;2.78;;;18.30;45.90;;;11.28;78.85;92532.53;4981394;28;20030;-54
2024/03/27 08:28:31;;;;;;;2.97;2.40;;;18.00;46.10;;;11.11;80.07;92563.72;4980981;28;20030;-54
2024/03/27 08:30:57;;;;;;;4.32;2.75;;;17.70;46.40;;;10.81;82.54;92568.63;4986223;28;20050;-54
2024/03/27 08:33:23;;;;;;;3.03;2.30;;;17.40;46.90;;;10.69;83.63;92574.00;4983751;28;21044;-51
2024/03/27 08:35:51;;;;;;;3.72;2.30;;;17.10;47.40;;;10.42;83.72;92576.25;4987720;28;20086;-51
2024/03/27 08:38:17;;;;;;;2.22;1.67;;;16.80;47.70;;;10.24;82.70;92585.56;4987472;28;20553;-48
2024/03/27 08:40:51;;;;;;;3.08;1.30;;;16.60;47.90;;;10.06;82.25;92584.25;4989815;28;20113;-48
2024/03/27 08:43:18;;;;;;;1.50;1.08;;;16.50;48.10;;;10.02;81.00;92557.56;4988732;28;20041;-48
2024/03/27 08:45:44;;;;;;;1.42;1.10;;;16.50;47.90;;;10.33;79.05;92549.00;4986704;28;20026;-49
2024/03/27 08:48:11;;;;;;;1.38;0.90;;;16.90;47.70;;;10.71;75.48;92555.00;4988423;28;20030;-48
2024/03/27 08:50:40;;;;;;;1.27;0.80;;;17.40;47.20;;;11.20;73.55;92563.56;4989524;28;20087;-48
2024/03/27 08:53:06;;;;;;;0.77;0.70;;;17.90;47.20;;;11.21;71.76;92559.00;4983108;28;20443;-49
2024/03/27 08:55:42;;;;;;;0.85;0.70;;;18.20;46.00;;;11.32;70.43;92568.06;4987495;28;20045;-47
2024/03/27 08:58:09;;;;;;;1.77;0.70;;;18.40;45.40;;;11.65;69.93;92569.63;4988948;28;20168;-50
2024/03/27 09:00:37;;;;;;;0.98;0.88;;;18.60;45.10;;;11.69;69.46;92578.47;4985732;28;20022;-49
2024/03/27 09:03:06;;;;;;;0.75;0.75;;;18.70;44.80;;;11.87;67.77;92584.28;4986892;28;20471;-54
2024/03/27 09:05:32;;;;;;;1.65;0.80;;;18.80;44.50;;;11.76;67.02;92578.66;4982694;28;20079;-51
2024/03/27 09:07:58;;;;;;;0.93;0.77;;;18.80;44.30;;;11.53;66.71;92576.59;4986082;28;20030;-47
2024/03/27 09:10:26;;;;;;;0.93;0.77;;;18.70;43.80;;;11.39;66.53;92584.22;4989490;28;20484;-46
2024/03/27 09:12:52;;;;;;;0.63;0.63;;;18.70;43.40;;;11.25;67.92;92589.16;4982903;28;20044;-48
2024/03/27 09:15:18;;;;;;;0.60;0.60;;;18.70;43.20;;;11.50;66.59;92603.94;4986174;28;20026;-48
2024/03/27 09:17:44;;;;;;;1.58;0.60;;;18.90;43.00;;;11.45;65.41;92604.19;4982142;28;20040;-48
2024/03/27 09:20:10;;;;;;;0.57;0.57;;;18.90;42.60;;;11.41;65.11;92621.19;4990176;28;20018;-47
2024/03/27 09:22:37;;;;;;;0.52;0.52;;;19.00;42.20;;;11.49;64.49;92618.34;4988226;28;20014;-46
2024/03/27 09:25:04;;;;;;;0.95;0.68;;;19.10;42.00;;;11.58;63.92;92631.53;4987422;28;20048;-51
2024/03/27 09:27:33;;;;;;;2.08;0.50;;;19.10;42.00;;;11.52;63.68;92632.91;4985836;28;20037;-50
2024/03/27 09:29:59;;;;;;;2.55;0.60;;;19.10;41.80;;;11.57;63.22;92641.44;4987328;28;20044;-46
2024/03/27 09:32:24;;;;;;;3.10;0.80;;;19.20;41.70;;;11.44;63.23;92644.47;4986858;28;20026;-50
2024/03/27 09:34:53;;;;;;;4.28;1.30;;;19.20;41.40;;;11.38;62.72;92637.88;4988703;28;20041;-50
2024/03/27 09:37:18;;;;;;;0.60;0.60;;;19.30;41.10;;;11.65;62.73;92657.59;4986739;28;20029;-48
2024/03/27 09:39:44;;;;;;;0.60;0.60;;;19.50;41.00;;;11.98;62.13;92658.09;4980568;28;20125;-50
2024/03/27 09:42:15;;;;;;;2.00;0.63;;;19.80;40.50;;;12.29;59.97;92640.53;4981461;28;20053;-49
2024/03/27 09:44:41;;;;;;;0.60;0.60;;;20.30;39.70;;;12.39;58.78;92649.91;4980480;28;20042;-47
2024/03/27 09:47:14;;;;;;;1.65;0.65;;;20.50;39.20;;;12.70;58.70;92633.84;4983214;28;20025;-47
2024/03/27 09:49:40;;;;;;;;;;;20.60;39.10;;;12.44;57.96;92637.09;4982619;28;20065;-48
2024/03/27 09:52:11;;;;;;;0.50;0.50;;;20.60;39.20;;;12.49;58.10;92639.47;4981936;28;20391;-49
2024/03/27 09:54:38;;;;;;;0.80;0.50;;;20.60;38.70;;;12.22;58.04;92667.84;4986715;28;20026;-51
2024/03/27 09:57:04;;;;;;;0.50;0.50;;;20.60;38.20;;;12.06;58.11;92672.38;4984643;28;20523;-49
2024/03/27 09:59:30;;;;;;;1.42;0.50;;;20.60;37.70;;;12.15;57.98;92666.88;4985678;28;20041;-48
2024/03/27 10:02:05;;;;;;;0.50;0.50;;;20.60;37.80;;;12.31;58.17;92667.66;4983338;28;20061;-48
2024/03/27 10:04:31;;;;;;;0.73;0.45;;;20.50;37.80;;;12.09;57.93;92657.59;4979710;28;20033;-46
2024/03/27 10:06:58;;;;;;;1.75;0.52;;;20.40;37.70;;;12.00;58.09;92663.88;4976803;28;20072;-46
2024/03/27 10:09:24;;;;;;;0.45;0.45;;;20.20;37.60;;;11.86;58.28;92665.41;4987702;28;20056;-47
2024/03/27 10:11:50;;;;;;;0.50;0.50;;;20.00;37.60;;;11.71;58.39;92653.56;4985339;28;20377;-47
2024/03/27 10:14:16;;;;;;;0.50;0.50;;;20.00;37.80;;;11.76;58.53;92662.09;4983219;28;20038;-47
2024/03/27 10:16:44;;;;;;;2.17;0.68;;;20.00;37.60;;;11.69;59.22;92661.94;4984475;28;20427;-49
2024/03/27 10:19:10;;;;;;;0.47;0.47;;;19.90;37.60;;;11.81;60.09;92680.53;4986601;28;20080;-50
2024/03/27 10:21:36;;;;;;;3.33;2.50;;;19.70;37.80;;;11.90;59.18;92685.72;4986384;28;20022;-49
2024/03/27 10:24:03;;;;;;;3.83;2.20;;;19.60;38.10;;;11.98;58.39;92692.00;4984821;28;20026;-52